sensor_id;sensor_type;location;lat;lon;timestamp;P1;durP1;ratioP1;P2;durP2;ratioP2
14167;SDS011;7163;50.626;12.922;2022-10-16T00:04:31;1.53;;;1.43;;
14167;SDS011;7163;50.626;12.922;2022-10-16T00:09:31;1.60;;;1.50;;
14167;SDS011;7163;50.626;12.922;2022-10-16T00:14:32;2.03;;;1.70;;
14167;SDS011;7163;50.626;12.922;2022-10-16T00:19:32;1.73;;;1.47;;
14167;SDS011;7163;50.626;12.922;2022-10-16T00:24:33;1.90;;;1.30;;
14167;SDS011;7163;50.626;12.922;2022-10-16T00:29:33;1.17;;;1.17;;
14167;SDS011;7163;50.626;12.922;2022-10-16T00:34:34;1.40;;;1.30;;
14167;SDS011;7163;50.626;12.922;2022-10-16T00:39:34;1.53;;;1.43;;
14167;SDS011;7163;50.626;12.922;2022-10-16T00:44:49;2.13;;;1.20;;
14167;SDS011;7163;50.626;12.922;2022-10-16T00:50:00;1.50;;;1.40;;
14167;SDS011;7163;50.626;12.922;2022-10-16T00:55:07;1.63;;;1.40;;
14167;SDS011;7163;50.626;12.922;2022-10-16T01:00:09;2.10;;;1.20;;
14167;SDS011;7163;50.626;12.922;2022-10-16T01:05:13;1.10;;;1.10;;
14167;SDS011;7163;50.626;12.922;2022-10-16T01:20:40;1.50;;;1.40;;
14167;SDS011;7163;50.626;12.922;2022-10-16T01:31:15;1.63;;;1.33;;
14167;SDS011;7163;50.626;12.922;2022-10-16T01:36:23;1.33;;;1.23;;
14167;SDS011;7163;50.626;12.922;2022-10-16T01:41:33;1.60;;;1.50;;
14167;SDS011;7163;50.626;12.922;2022-10-16T01:46:37;2.07;;;1.30;;
14167;SDS011;7163;50.626;12.922;2022-10-16T01:51:39;1.40;;;1.30;;
14167;SDS011;7163;50.626;12.922;2022-10-16T01:56:41;4.10;;;1.80;;
14167;SDS011;7163;50.626;12.922;2022-10-16T02:01:44;1.60;;;1.50;;
14167;SDS011;7163;50.626;12.922;2022-10-16T02:06:46;1.40;;;1.40;;
14167;SDS011;7163;50.626;12.922;2022-10-16T02:11:47;1.73;;;1.63;;
14167;SDS011;7163;50.626;12.922;2022-10-16T02:16:49;3.67;;;1.40;;
14167;SDS011;7163;50.626;12.922;2022-10-16T02:22:00;1.73;;;1.63;;
14167;SDS011;7163;50.626;12.922;2022-10-16T02:27:13;1.70;;;1.60;;
14167;SDS011;7163;50.626;12.922;2022-10-16T02:32:19;1.73;;;1.50;;
14167;SDS011;7163;50.626;12.922;2022-10-16T02:37:21;1.70;;;1.60;;
14167;SDS011;7163;50.626;12.922;2022-10-16T02:42:24;1.60;;;1.50;;
14167;SDS011;7163;50.626;12.922;2022-10-16T02:47:33;1.90;;;1.40;;
14167;SDS011;7163;50.626;12.922;2022-10-16T02:52:34;1.50;;;1.40;;
14167;SDS011;7163;50.626;12.922;2022-10-16T02:57:34;1.63;;;1.50;;
14167;SDS011;7163;50.626;12.922;2022-10-16T03:02:36;3.13;;;1.50;;
14167;SDS011;7163;50.626;12.922;2022-10-16T03:07:37;1.73;;;1.50;;
14167;SDS011;7163;50.626;12.922;2022-10-16T03:12:37;1.50;;;1.40;;
14167;SDS011;7163;50.626;12.922;2022-10-16T03:17:38;1.67;;;1.57;;
14167;SDS011;7163;50.626;12.922;2022-10-16T03:22:38;3.40;;;1.70;;
14167;SDS011;7163;50.626;12.922;2022-10-16T03:27:39;1.10;;;1.10;;
14167;SDS011;7163;50.626;12.922;2022-10-16T03:32:39;1.83;;;1.37;;
14167;SDS011;7163;50.626;12.922;2022-10-16T03:37:39;2.20;;;1.40;;
14167;SDS011;7163;50.626;12.922;2022-10-16T03:42:40;1.20;;;1.20;;
14167;SDS011;7163;50.626;12.922;2022-10-16T03:47:40;1.03;;;1.03;;
14167;SDS011;7163;50.626;12.922;2022-10-16T03:52:41;1.87;;;1.27;;
14167;SDS011;7163;50.626;12.922;2022-10-16T03:57:41;1.40;;;1.20;;
14167;SDS011;7163;50.626;12.922;2022-10-16T04:02:42;2.57;;;1.07;;
14167;SDS011;7163;50.626;12.922;2022-10-16T04:07:42;1.37;;;1.27;;
14167;SDS011;7163;50.626;12.922;2022-10-16T04:12:42;1.10;;;1.10;;
14167;SDS011;7163;50.626;12.922;2022-10-16T04:17:43;1.20;;;1.20;;
14167;SDS011;7163;50.626;12.922;2022-10-16T04:22:43;2.70;;;1.90;;
14167;SDS011;7163;50.626;12.922;2022-10-16T04:27:44;1.37;;;1.27;;
14167;SDS011;7163;50.626;12.922;2022-10-16T04:32:47;1.53;;;1.43;;
14167;SDS011;7163;50.626;12.922;2022-10-16T04:37:51;1.70;;;1.60;;
14167;SDS011;7163;50.626;12.922;2022-10-16T04:42:51;1.77;;;1.67;;
14167;SDS011;7163;50.626;12.922;2022-10-16T04:47:52;2.17;;;1.70;;
14167;SDS011;7163;50.626;12.922;2022-10-16T04:52:52;2.67;;;1.90;;
14167;SDS011;7163;50.626;12.922;2022-10-16T04:57:52;6.37;;;1.73;;
14167;SDS011;7163;50.626;12.922;2022-10-16T05:02:53;6.17;;;2.03;;
14167;SDS011;7163;50.626;12.922;2022-10-16T05:07:53;2.07;;;1.97;;
14167;SDS011;7163;50.626;12.922;2022-10-16T05:12:54;2.50;;;1.60;;
14167;SDS011;7163;50.626;12.922;2022-10-16T05:17:54;1.73;;;1.60;;
14167;SDS011;7163;50.626;12.922;2022-10-16T05:22:55;1.67;;;1.57;;
14167;SDS011;7163;50.626;12.922;2022-10-16T05:27:56;1.67;;;1.43;;
14167;SDS011;7163;50.626;12.922;2022-10-16T05:32:56;5.37;;;1.60;;
14167;SDS011;7163;50.626;12.922;2022-10-16T05:37:56;1.40;;;1.30;;
14167;SDS011;7163;50.626;12.922;2022-10-16T05:42:57;2.03;;;1.40;;
14167;SDS011;7163;50.626;12.922;2022-10-16T05:47:57;2.30;;;1.50;;
14167;SDS011;7163;50.626;12.922;2022-10-16T05:52:58;1.40;;;1.40;;
14167;SDS011;7163;50.626;12.922;2022-10-16T05:57:58;1.53;;;1.43;;
14167;SDS011;7163;50.626;12.922;2022-10-16T06:02:59;1.40;;;1.30;;
14167;SDS011;7163;50.626;12.922;2022-10-16T06:07:59;1.70;;;1.60;;
14167;SDS011;7163;50.626;12.922;2022-10-16T06:12:59;1.73;;;1.63;;
14167;SDS011;7163;50.626;12.922;2022-10-16T06:18:00;2.40;;;1.50;;
14167;SDS011;7163;50.626;12.922;2022-10-16T06:23:00;1.77;;;1.50;;
14167;SDS011;7163;50.626;12.922;2022-10-16T06:28:01;1.90;;;1.80;;
14167;SDS011;7163;50.626;12.922;2022-10-16T06:33:01;1.83;;;1.73;;
14167;SDS011;7163;50.626;12.922;2022-10-16T06:38:02;2.20;;;2.00;;
14167;SDS011;7163;50.626;12.922;2022-10-16T06:43:02;2.50;;;2.20;;
14167;SDS011;7163;50.626;12.922;2022-10-16T06:48:02;2.47;;;2.27;;
14167;SDS011;7163;50.626;12.922;2022-10-16T06:53:03;2.83;;;2.50;;
14167;SDS011;7163;50.626;12.922;2022-10-16T06:58:03;4.20;;;2.73;;
14167;SDS011;7163;50.626;12.922;2022-10-16T07:03:04;4.57;;;2.83;;
14167;SDS011;7163;50.626;12.922;2022-10-16T07:08:04;8.27;;;3.10;;
14167;SDS011;7163;50.626;12.922;2022-10-16T07:13:05;4.47;;;3.27;;
14167;SDS011;7163;50.626;12.922;2022-10-16T07:18:07;6.97;;;3.77;;
14167;SDS011;7163;50.626;12.922;2022-10-16T07:23:08;6.60;;;3.70;;
14167;SDS011;7163;50.626;12.922;2022-10-16T07:28:08;4.90;;;3.60;;
14167;SDS011;7163;50.626;12.922;2022-10-16T07:33:11;4.30;;;3.40;;
14167;SDS011;7163;50.626;12.922;2022-10-16T07:38:12;4.03;;;2.80;;
14167;SDS011;7163;50.626;12.922;2022-10-16T07:43:12;3.53;;;3.10;;
14167;SDS011;7163;50.626;12.922;2022-10-16T07:48:13;3.70;;;3.13;;
14167;SDS011;7163;50.626;12.922;2022-10-16T07:53:14;5.23;;;2.90;;
14167;SDS011;7163;50.626;12.922;2022-10-16T07:58:15;2.60;;;2.40;;
14167;SDS011;7163;50.626;12.922;2022-10-16T08:03:15;2.70;;;2.40;;
14167;SDS011;7163;50.626;12.922;2022-10-16T08:08:16;3.13;;;2.50;;
14167;SDS011;7163;50.626;12.922;2022-10-16T08:13:17;1.95;;;1.77;;
14167;SDS011;7163;50.626;12.922;2022-10-16T08:18:18;2.28;;;2.13;;
14167;SDS011;7163;50.626;12.922;2022-10-16T08:23:18;2.78;;;2.17;;
14167;SDS011;7163;50.626;12.922;2022-10-16T08:28:21;6.68;;;4.63;;
14167;SDS011;7163;50.626;12.922;2022-10-16T08:33:22;2.17;;;2.03;;
14167;SDS011;7163;50.626;12.922;2022-10-16T08:38:23;4.80;;;2.25;;
14167;SDS011;7163;50.626;12.922;2022-10-16T08:43:27;2.50;;;2.22;;
14167;SDS011;7163;50.626;12.922;2022-10-16T08:48:51;1.65;;;1.55;;
14167;SDS011;7163;50.626;12.922;2022-10-16T08:53:56;3.05;;;1.73;;
14167;SDS011;7163;50.626;12.922;2022-10-16T08:58:59;2.42;;;1.65;;
14167;SDS011;7163;50.626;12.922;2022-10-16T09:05:03;1.60;;;1.50;;
14167;SDS011;7163;50.626;12.922;2022-10-16T09:14:57;1.73;;;1.40;;
14167;SDS011;7163;50.626;12.922;2022-10-16T09:20:20;1.60;;;1.50;;
14167;SDS011;7163;50.626;12.922;2022-10-16T09:25:26;1.13;;;1.00;;
14167;SDS011;7163;50.626;12.922;2022-10-16T09:30:27;1.92;;;1.58;;
14167;SDS011;7163;50.626;12.922;2022-10-16T09:35:39;1.20;;;1.20;;
14167;SDS011;7163;50.626;12.922;2022-10-16T09:40:49;0.90;;;0.90;;
14167;SDS011;7163;50.626;12.922;2022-10-16T09:46:03;1.05;;;1.05;;
14167;SDS011;7163;50.626;12.922;2022-10-16T09:51:06;2.50;;;1.08;;
14167;SDS011;7163;50.626;12.922;2022-10-16T09:56:30;1.33;;;1.20;;
14167;SDS011;7163;50.626;12.922;2022-10-16T10:01:46;1.30;;;1.20;;
14167;SDS011;7163;50.626;12.922;2022-10-16T10:06:49;1.52;;;1.10;;
14167;SDS011;7163;50.626;12.922;2022-10-16T10:11:56;1.00;;;1.00;;
14167;SDS011;7163;50.626;12.922;2022-10-16T10:22:24;5.32;;;1.30;;
14167;SDS011;7163;50.626;12.922;2022-10-16T10:27:28;1.38;;;1.20;;
14167;SDS011;7163;50.626;12.922;2022-10-16T10:38:12;1.63;;;1.40;;
14167;SDS011;7163;50.626;12.922;2022-10-16T10:53:57;1.13;;;1.13;;
14167;SDS011;7163;50.626;12.922;2022-10-16T11:15:21;1.50;;;1.38;;
14167;SDS011;7163;50.626;12.922;2022-10-16T11:20:33;3.40;;;1.95;;
14167;SDS011;7163;50.626;12.922;2022-10-16T11:25:37;1.52;;;1.00;;
14167;SDS011;7163;50.626;12.922;2022-10-16T11:31:02;1.13;;;1.08;;
14167;SDS011;7163;50.626;12.922;2022-10-16T11:36:08;2.15;;;0.80;;
14167;SDS011;7163;50.626;12.922;2022-10-16T11:46:35;0.68;;;0.68;;
14167;SDS011;7163;50.626;12.922;2022-10-16T11:56:54;1.65;;;0.80;;
14167;SDS011;7163;50.626;12.922;2022-10-16T12:07:14;2.63;;;0.80;;
14167;SDS011;7163;50.626;12.922;2022-10-16T12:12:28;3.08;;;1.00;;
14167;SDS011;7163;50.626;12.922;2022-10-16T12:17:38;0.82;;;0.75;;
14167;SDS011;7163;50.626;12.922;2022-10-16T12:22:58;0.88;;;0.80;;
14167;SDS011;7163;50.626;12.922;2022-10-16T12:33:19;1.08;;;0.93;;
14167;SDS011;7163;50.626;12.922;2022-10-16T12:38:22;2.60;;;0.90;;
14167;SDS011;7163;50.626;12.922;2022-10-16T12:43:44;1.45;;;1.05;;
14167;SDS011;7163;50.626;12.922;2022-10-16T12:48:46;1.85;;;1.08;;
14167;SDS011;7163;50.626;12.922;2022-10-16T12:54:04;1.10;;;1.10;;
14167;SDS011;7163;50.626;12.922;2022-10-16T13:14:47;1.50;;;1.40;;
14167;SDS011;7163;50.626;12.922;2022-10-16T13:20:32;5.28;;;1.45;;
14167;SDS011;7163;50.626;12.922;2022-10-16T13:30:40;1.60;;;1.50;;
14167;SDS011;7163;50.626;12.922;2022-10-16T13:35:49;2.15;;;1.30;;
14167;SDS011;7163;50.626;12.922;2022-10-16T13:40:52;1.20;;;1.20;;
14167;SDS011;7163;50.626;12.922;2022-10-16T13:46:10;1.65;;;1.40;;
14167;SDS011;7163;50.626;12.922;2022-10-16T13:51:16;1.42;;;1.33;;
14167;SDS011;7163;50.626;12.922;2022-10-16T13:56:19;2.75;;;1.20;;
14167;SDS011;7163;50.626;12.922;2022-10-16T14:01:23;3.72;;;1.42;;
14167;SDS011;7163;50.626;12.922;2022-10-16T14:06:24;2.35;;;1.63;;
14167;SDS011;7163;50.626;12.922;2022-10-16T14:11:25;3.17;;;1.67;;
14167;SDS011;7163;50.626;12.922;2022-10-16T14:16:26;4.60;;;1.85;;
14167;SDS011;7163;50.626;12.922;2022-10-16T14:21:29;1.50;;;1.17;;
14167;SDS011;7163;50.626;12.922;2022-10-16T14:26:29;3.55;;;1.20;;
14167;SDS011;7163;50.626;12.922;2022-10-16T14:31:41;1.55;;;1.40;;
14167;SDS011;7163;50.626;12.922;2022-10-16T14:36:43;2.80;;;1.00;;
14167;SDS011;7163;50.626;12.922;2022-10-16T14:41:44;1.30;;;1.20;;
14167;SDS011;7163;50.626;12.922;2022-10-16T14:46:45;3.78;;;1.20;;
14167;SDS011;7163;50.626;12.922;2022-10-16T14:51:46;3.03;;;1.10;;
14167;SDS011;7163;50.626;12.922;2022-10-16T14:56:50;2.58;;;1.40;;
14167;SDS011;7163;50.626;12.922;2022-10-16T15:01:52;4.60;;;1.80;;
14167;SDS011;7163;50.626;12.922;2022-10-16T15:06:52;3.03;;;1.45;;
14167;SDS011;7163;50.626;12.922;2022-10-16T15:11:52;2.10;;;1.90;;
14167;SDS011;7163;50.626;12.922;2022-10-16T15:16:53;3.88;;;1.40;;
14167;SDS011;7163;50.626;12.922;2022-10-16T15:21:53;1.65;;;1.20;;
14167;SDS011;7163;50.626;12.922;2022-10-16T15:26:54;2.10;;;1.90;;
14167;SDS011;7163;50.626;12.922;2022-10-16T15:31:54;3.28;;;2.22;;
14167;SDS011;7163;50.626;12.922;2022-10-16T15:36:54;4.43;;;2.53;;
14167;SDS011;7163;50.626;12.922;2022-10-16T15:41:57;7.88;;;4.32;;
14167;SDS011;7163;50.626;12.922;2022-10-16T15:46:58;10.68;;;5.65;;
14167;SDS011;7163;50.626;12.922;2022-10-16T15:51:58;3.22;;;2.38;;
14167;SDS011;7163;50.626;12.922;2022-10-16T15:56:59;3.40;;;2.20;;
14167;SDS011;7163;50.626;12.922;2022-10-16T16:01:59;2.78;;;2.00;;
14167;SDS011;7163;50.626;12.922;2022-10-16T16:07:00;3.97;;;3.10;;
14167;SDS011;7163;50.626;12.922;2022-10-16T16:12:01;12.02;;;8.05;;
14167;SDS011;7163;50.626;12.922;2022-10-16T16:17:02;10.90;;;6.40;;
14167;SDS011;7163;50.626;12.922;2022-10-16T16:22:02;17.95;;;10.43;;
14167;SDS011;7163;50.626;12.922;2022-10-16T16:27:02;7.57;;;4.37;;
14167;SDS011;7163;50.626;12.922;2022-10-16T16:32:03;7.67;;;4.53;;
14167;SDS011;7163;50.626;12.922;2022-10-16T16:37:03;10.63;;;4.90;;
14167;SDS011;7163;50.626;12.922;2022-10-16T16:42:04;22.47;;;14.33;;
14167;SDS011;7163;50.626;12.922;2022-10-16T16:47:06;19.43;;;11.67;;
14167;SDS011;7163;50.626;12.922;2022-10-16T16:52:06;14.63;;;9.63;;
14167;SDS011;7163;50.626;12.922;2022-10-16T16:57:07;14.90;;;10.90;;
14167;SDS011;7163;50.626;12.922;2022-10-16T17:02:07;15.00;;;10.80;;
14167;SDS011;7163;50.626;12.922;2022-10-16T17:07:08;15.43;;;11.40;;
14167;SDS011;7163;50.626;12.922;2022-10-16T17:12:08;12.07;;;9.23;;
14167;SDS011;7163;50.626;12.922;2022-10-16T17:17:09;23.40;;;14.00;;
14167;SDS011;7163;50.626;12.922;2022-10-16T17:22:09;12.93;;;8.63;;
14167;SDS011;7163;50.626;12.922;2022-10-16T17:27:10;7.50;;;4.67;;
14167;SDS011;7163;50.626;12.922;2022-10-16T17:32:11;7.70;;;5.00;;
14167;SDS011;7163;50.626;12.922;2022-10-16T17:37:13;13.13;;;8.63;;
14167;SDS011;7163;50.626;12.922;2022-10-16T17:42:13;23.30;;;11.37;;
14167;SDS011;7163;50.626;12.922;2022-10-16T17:47:14;8.53;;;4.90;;
14167;SDS011;7163;50.626;12.922;2022-10-16T17:52:14;8.33;;;4.87;;
14167;SDS011;7163;50.626;12.922;2022-10-16T17:57:14;5.13;;;4.10;;
14167;SDS011;7163;50.626;12.922;2022-10-16T18:02:15;5.30;;;3.97;;
14167;SDS011;7163;50.626;12.922;2022-10-16T18:07:17;7.17;;;5.00;;
14167;SDS011;7163;50.626;12.922;2022-10-16T18:12:17;5.10;;;4.10;;
14167;SDS011;7163;50.626;12.922;2022-10-16T18:17:18;7.20;;;4.60;;
14167;SDS011;7163;50.626;12.922;2022-10-16T18:22:18;6.50;;;4.50;;
14167;SDS011;7163;50.626;12.922;2022-10-16T18:27:18;6.43;;;4.33;;
14167;SDS011;7163;50.626;12.922;2022-10-16T18:32:19;15.50;;;7.50;;
14167;SDS011;7163;50.626;12.922;2022-10-16T18:37:20;10.07;;;6.93;;
14167;SDS011;7163;50.626;12.922;2022-10-16T18:42:20;13.07;;;7.20;;
14167;SDS011;7163;50.626;12.922;2022-10-16T18:47:21;12.57;;;8.00;;
14167;SDS011;7163;50.626;12.922;2022-10-16T18:52:21;15.90;;;8.03;;
14167;SDS011;7163;50.626;12.922;2022-10-16T18:57:23;9.23;;;6.53;;
14167;SDS011;7163;50.626;12.922;2022-10-16T19:02:23;14.40;;;7.20;;
14167;SDS011;7163;50.626;12.922;2022-10-16T19:07:24;9.87;;;7.30;;
14167;SDS011;7163;50.626;12.922;2022-10-16T19:12:24;9.73;;;7.27;;
14167;SDS011;7163;50.626;12.922;2022-10-16T19:17:25;9.10;;;7.07;;
14167;SDS011;7163;50.626;12.922;2022-10-16T19:22:25;11.60;;;7.33;;
14167;SDS011;7163;50.626;12.922;2022-10-16T19:27:50;8.40;;;6.23;;
14167;SDS011;7163;50.626;12.922;2022-10-16T19:32:51;8.33;;;6.53;;
14167;SDS011;7163;50.626;12.922;2022-10-16T19:37:52;9.17;;;6.10;;
14167;SDS011;7163;50.626;12.922;2022-10-16T19:42:52;10.57;;;6.40;;
14167;SDS011;7163;50.626;12.922;2022-10-16T19:47:53;9.43;;;7.13;;
14167;SDS011;7163;50.626;12.922;2022-10-16T19:52:53;10.07;;;7.20;;
14167;SDS011;7163;50.626;12.922;2022-10-16T19:57:54;14.27;;;8.93;;
14167;SDS011;7163;50.626;12.922;2022-10-16T20:02:54;12.00;;;8.37;;
14167;SDS011;7163;50.626;12.922;2022-10-16T20:07:55;11.47;;;8.10;;
14167;SDS011;7163;50.626;12.922;2022-10-16T20:12:55;9.77;;;7.03;;
14167;SDS011;7163;50.626;12.922;2022-10-16T20:17:55;10.50;;;7.10;;
14167;SDS011;7163;50.626;12.922;2022-10-16T20:22:56;14.63;;;9.07;;
14167;SDS011;7163;50.626;12.922;2022-10-16T20:27:56;11.97;;;7.77;;
14167;SDS011;7163;50.626;12.922;2022-10-16T20:32:57;13.27;;;9.37;;
14167;SDS011;7163;50.626;12.922;2022-10-16T20:37:57;13.43;;;8.47;;
14167;SDS011;7163;50.626;12.922;2022-10-16T20:42:57;11.03;;;8.00;;
14167;SDS011;7163;50.626;12.922;2022-10-16T20:47:58;14.57;;;8.27;;
14167;SDS011;7163;50.626;12.922;2022-10-16T20:53:00;15.23;;;8.63;;
14167;SDS011;7163;50.626;12.922;2022-10-16T20:58:00;12.13;;;8.00;;
14167;SDS011;7163;50.626;12.922;2022-10-16T21:03:01;11.07;;;6.97;;
14167;SDS011;7163;50.626;12.922;2022-10-16T21:08:01;8.53;;;5.90;;
14167;SDS011;7163;50.626;12.922;2022-10-16T21:13:02;10.03;;;6.57;;
14167;SDS011;7163;50.626;12.922;2022-10-16T21:18:02;11.00;;;6.50;;
14167;SDS011;7163;50.626;12.922;2022-10-16T21:23:03;8.83;;;6.40;;
14167;SDS011;7163;50.626;12.922;2022-10-16T21:28:03;10.13;;;6.90;;
14167;SDS011;7163;50.626;12.922;2022-10-16T21:33:04;10.53;;;6.87;;
14167;SDS011;7163;50.626;12.922;2022-10-16T21:38:04;11.37;;;7.23;;
14167;SDS011;7163;50.626;12.922;2022-10-16T21:43:07;10.00;;;6.77;;
14167;SDS011;7163;50.626;12.922;2022-10-16T21:48:09;9.57;;;6.70;;
14167;SDS011;7163;50.626;12.922;2022-10-16T21:53:10;10.43;;;7.37;;
14167;SDS011;7163;50.626;12.922;2022-10-16T21:58:10;10.27;;;7.43;;
14167;SDS011;7163;50.626;12.922;2022-10-16T22:03:11;10.60;;;7.43;;
14167;SDS011;7163;50.626;12.922;2022-10-16T22:08:11;8.53;;;6.80;;
14167;SDS011;7163;50.626;12.922;2022-10-16T22:13:11;7.47;;;5.90;;
14167;SDS011;7163;50.626;12.922;2022-10-16T22:18:12;11.80;;;7.20;;
14167;SDS011;7163;50.626;12.922;2022-10-16T22:23:12;11.37;;;7.27;;
14167;SDS011;7163;50.626;12.922;2022-10-16T22:28:13;9.47;;;6.83;;
14167;SDS011;7163;50.626;12.922;2022-10-16T22:33:13;10.00;;;6.20;;
14167;SDS011;7163;50.626;12.922;2022-10-16T22:38:13;8.03;;;6.10;;
14167;SDS011;7163;50.626;12.922;2022-10-16T22:43:14;8.00;;;6.13;;
14167;SDS011;7163;50.626;12.922;2022-10-16T22:48:14;7.80;;;5.93;;
14167;SDS011;7163;50.626;12.922;2022-10-16T22:53:15;6.70;;;5.13;;
14167;SDS011;7163;50.626;12.922;2022-10-16T22:58:15;7.50;;;5.57;;
14167;SDS011;7163;50.626;12.922;2022-10-16T23:03:16;7.03;;;5.13;;
14167;SDS011;7163;50.626;12.922;2022-10-16T23:08:16;6.23;;;5.27;;
14167;SDS011;7163;50.626;12.922;2022-10-16T23:13:17;7.93;;;5.67;;
14167;SDS011;7163;50.626;12.922;2022-10-16T23:18:17;7.50;;;5.43;;
14167;SDS011;7163;50.626;12.922;2022-10-16T23:23:17;8.40;;;5.70;;
14167;SDS011;7163;50.626;12.922;2022-10-16T23:28:18;8.40;;;5.90;;
14167;SDS011;7163;50.626;12.922;2022-10-16T23:33:18;6.87;;;5.07;;
14167;SDS011;7163;50.626;12.922;2022-10-16T23:38:20;7.63;;;5.17;;
14167;SDS011;7163;50.626;12.922;2022-10-16T23:43:20;6.10;;;4.67;;
14167;SDS011;7163;50.626;12.922;2022-10-16T23:48:20;6.50;;;4.70;;
14167;SDS011;7163;50.626;12.922;2022-10-16T23:53:21;6.97;;;4.53;;
14167;SDS011;7163;50.626;12.922;2022-10-16T23:58:22;8.37;;;4.87;;
